sensor_id;sensor_type;location;lat;lon;timestamp;temperature;humidity
20091;DHT22;10205;49.678;6.560;2022-11-15T00:01:09;13.70;78.60
20091;DHT22;10205;49.678;6.560;2022-11-15T00:03:39;13.70;78.50
20091;DHT22;10205;49.678;6.560;2022-11-15T00:06:06;13.70;78.90
20091;DHT22;10205;49.678;6.560;2022-11-15T00:08:34;13.80;79.00
20091;DHT22;10205;49.678;6.560;2022-11-15T00:11:02;13.80;78.90
20091;DHT22;10205;49.678;6.560;2022-11-15T00:13:31;13.80;78.70
20091;DHT22;10205;49.678;6.560;2022-11-15T00:16:00;13.80;79.00
20091;DHT22;10205;49.678;6.560;2022-11-15T00:18:28;13.90;78.50
20091;DHT22;10205;49.678;6.560;2022-11-15T00:21:03;13.90;78.10
20091;DHT22;10205;49.678;6.560;2022-11-15T00:23:33;13.90;78.70
20091;DHT22;10205;49.678;6.560;2022-11-15T00:26:01;13.90;78.40
20091;DHT22;10205;49.678;6.560;2022-11-15T00:28:28;13.90;78.40
20091;DHT22;10205;49.678;6.560;2022-11-15T00:31:00;13.90;79.20
20091;DHT22;10205;49.678;6.560;2022-11-15T00:33:30;14.00;78.50
20091;DHT22;10205;49.678;6.560;2022-11-15T00:36:03;14.00;78.20
20091;DHT22;10205;49.678;6.560;2022-11-15T00:38:33;14.00;79.00
20091;DHT22;10205;49.678;6.560;2022-11-15T00:41:03;14.00;78.20
20091;DHT22;10205;49.678;6.560;2022-11-15T00:43:32;14.10;78.80
20091;DHT22;10205;49.678;6.560;2022-11-15T00:46:00;14.10;78.80
20091;DHT22;10205;49.678;6.560;2022-11-15T00:48:29;14.10;78.50
20091;DHT22;10205;49.678;6.560;2022-11-15T00:50:57;14.10;78.50
20091;DHT22;10205;49.678;6.560;2022-11-15T00:53:25;14.10;79.10
20091;DHT22;10205;49.678;6.560;2022-11-15T00:55:53;14.10;78.60
20091;DHT22;10205;49.678;6.560;2022-11-15T00:58:21;14.20;78.60
20091;DHT22;10205;49.678;6.560;2022-11-15T01:00:49;14.20;78.50
20091;DHT22;10205;49.678;6.560;2022-11-15T01:03:17;14.20;78.40
20091;DHT22;10205;49.678;6.560;2022-11-15T01:05:44;14.20;78.50
20091;DHT22;10205;49.678;6.560;2022-11-15T01:08:13;14.20;78.20
20091;DHT22;10205;49.678;6.560;2022-11-15T01:10:45;14.20;78.50
20091;DHT22;10205;49.678;6.560;2022-11-15T01:13:12;14.20;78.50
20091;DHT22;10205;49.678;6.560;2022-11-15T01:15:40;14.30;78.60
20091;DHT22;10205;49.678;6.560;2022-11-15T01:18:09;14.30;78.50
20091;DHT22;10205;49.678;6.560;2022-11-15T01:20:39;14.30;78.30
20091;DHT22;10205;49.678;6.560;2022-11-15T01:23:08;14.30;77.90
20091;DHT22;10205;49.678;6.560;2022-11-15T01:25:37;14.30;77.60
20091;DHT22;10205;49.678;6.560;2022-11-15T01:28:06;14.30;77.80
20091;DHT22;10205;49.678;6.560;2022-11-15T01:30:33;14.30;78.00
20091;DHT22;10205;49.678;6.560;2022-11-15T01:33:02;14.30;77.70
20091;DHT22;10205;49.678;6.560;2022-11-15T01:35:30;14.40;77.80
20091;DHT22;10205;49.678;6.560;2022-11-15T01:37:59;14.40;77.90
20091;DHT22;10205;49.678;6.560;2022-11-15T01:40:28;14.40;77.80
20091;DHT22;10205;49.678;6.560;2022-11-15T01:42:57;14.40;78.00
20091;DHT22;10205;49.678;6.560;2022-11-15T01:45:26;14.40;77.70
20091;DHT22;10205;49.678;6.560;2022-11-15T01:47:54;14.40;77.60
20091;DHT22;10205;49.678;6.560;2022-11-15T01:50:26;14.40;77.60
20091;DHT22;10205;49.678;6.560;2022-11-15T01:52:57;14.50;77.60
20091;DHT22;10205;49.678;6.560;2022-11-15T01:55:30;14.50;77.40
20091;DHT22;10205;49.678;6.560;2022-11-15T01:58:00;14.50;77.50
20091;DHT22;10205;49.678;6.560;2022-11-15T02:00:32;14.50;77.30
20091;DHT22;10205;49.678;6.560;2022-11-15T02:02:59;14.50;77.40
20091;DHT22;10205;49.678;6.560;2022-11-15T02:05:29;14.50;77.30
20091;DHT22;10205;49.678;6.560;2022-11-15T02:07:58;14.50;77.60
20091;DHT22;10205;49.678;6.560;2022-11-15T02:10:28;14.50;77.60
20091;DHT22;10205;49.678;6.560;2022-11-15T02:12:56;14.50;77.50
20091;DHT22;10205;49.678;6.560;2022-11-15T02:15:30;14.50;77.30
20091;DHT22;10205;49.678;6.560;2022-11-15T02:18:16;14.60;77.40
20091;DHT22;10205;49.678;6.560;2022-11-15T02:21:05;14.60;77.70
20091;DHT22;10205;49.678;6.560;2022-11-15T02:30:27;14.60;76.90
20091;DHT22;10205;49.678;6.560;2022-11-15T02:33:06;14.60;77.70
20091;DHT22;10205;49.678;6.560;2022-11-15T02:35:47;14.60;76.70
20091;DHT22;10205;49.678;6.560;2022-11-15T02:38:28;14.60;76.50
20091;DHT22;10205;49.678;6.560;2022-11-15T02:41:02;14.60;76.40
20091;DHT22;10205;49.678;6.560;2022-11-15T02:43:37;14.60;76.50
20091;DHT22;10205;49.678;6.560;2022-11-15T02:46:31;14.60;76.10
20091;DHT22;10205;49.678;6.560;2022-11-15T02:49:19;14.60;76.20
20091;DHT22;10205;49.678;6.560;2022-11-15T02:51:51;14.60;76.30
20091;DHT22;10205;49.678;6.560;2022-11-15T02:54:22;14.60;76.30
20091;DHT22;10205;49.678;6.560;2022-11-15T02:56:52;14.60;76.20
20091;DHT22;10205;49.678;6.560;2022-11-15T02:59:57;14.60;76.40
20091;DHT22;10205;49.678;6.560;2022-11-15T03:03:00;14.60;76.30
20091;DHT22;10205;49.678;6.560;2022-11-15T03:05:41;14.60;76.50
20091;DHT22;10205;49.678;6.560;2022-11-15T03:08:18;14.70;76.40
20091;DHT22;10205;49.678;6.560;2022-11-15T03:10:56;14.60;76.00
20091;DHT22;10205;49.678;6.560;2022-11-15T03:13:36;14.60;76.30
20091;DHT22;10205;49.678;6.560;2022-11-15T03:16:14;14.70;75.90
20091;DHT22;10205;49.678;6.560;2022-11-15T03:18:49;14.70;76.10
20091;DHT22;10205;49.678;6.560;2022-11-15T03:21:24;14.70;76.20
20091;DHT22;10205;49.678;6.560;2022-11-15T03:23:58;14.70;76.20
20091;DHT22;10205;49.678;6.560;2022-11-15T03:26:32;14.70;76.10
20091;DHT22;10205;49.678;6.560;2022-11-15T03:29:03;14.70;76.10
20091;DHT22;10205;49.678;6.560;2022-11-15T03:31:37;14.70;75.80
20091;DHT22;10205;49.678;6.560;2022-11-15T03:34:22;14.70;75.90
20091;DHT22;10205;49.678;6.560;2022-11-15T03:36:54;14.70;75.70
20091;DHT22;10205;49.678;6.560;2022-11-15T03:39:22;14.70;75.60
20091;DHT22;10205;49.678;6.560;2022-11-15T03:41:57;14.70;76.40
20091;DHT22;10205;49.678;6.560;2022-11-15T03:44:37;14.70;75.40
20091;DHT22;10205;49.678;6.560;2022-11-15T03:47:16;14.70;75.40
20091;DHT22;10205;49.678;6.560;2022-11-15T03:49:52;14.60;75.30
20091;DHT22;10205;49.678;6.560;2022-11-15T03:52:25;14.60;75.00
20091;DHT22;10205;49.678;6.560;2022-11-15T03:54:54;14.60;75.00
20091;DHT22;10205;49.678;6.560;2022-11-15T03:57:23;14.60;75.10
20091;DHT22;10205;49.678;6.560;2022-11-15T03:59:52;14.60;75.30
20091;DHT22;10205;49.678;6.560;2022-11-15T04:02:19;14.60;75.50
20091;DHT22;10205;49.678;6.560;2022-11-15T04:04:47;14.60;75.20
20091;DHT22;10205;49.678;6.560;2022-11-15T04:07:15;14.60;75.10
20091;DHT22;10205;49.678;6.560;2022-11-15T04:09:43;14.50;75.10
20091;DHT22;10205;49.678;6.560;2022-11-15T04:12:28;14.50;75.10
20091;DHT22;10205;49.678;6.560;2022-11-15T04:15:00;14.50;75.10
20091;DHT22;10205;49.678;6.560;2022-11-15T04:17:37;14.50;75.20
20091;DHT22;10205;49.678;6.560;2022-11-15T04:20:09;14.50;75.20
20091;DHT22;10205;49.678;6.560;2022-11-15T04:22:58;14.50;75.30
20091;DHT22;10205;49.678;6.560;2022-11-15T04:25:50;14.50;75.10
20091;DHT22;10205;49.678;6.560;2022-11-15T04:28:19;14.50;75.30
20091;DHT22;10205;49.678;6.560;2022-11-15T04:30:46;14.50;75.20
20091;DHT22;10205;49.678;6.560;2022-11-15T04:33:13;14.50;75.10
20091;DHT22;10205;49.678;6.560;2022-11-15T04:35:41;14.40;75.20
20091;DHT22;10205;49.678;6.560;2022-11-15T04:38:11;14.40;75.30
20091;DHT22;10205;49.678;6.560;2022-11-15T04:40:37;14.40;75.20
20091;DHT22;10205;49.678;6.560;2022-11-15T04:43:05;14.40;75.00
20091;DHT22;10205;49.678;6.560;2022-11-15T04:45:33;14.40;75.10
20091;DHT22;10205;49.678;6.560;2022-11-15T04:48:00;14.40;75.00
20091;DHT22;10205;49.678;6.560;2022-11-15T04:50:27;14.40;75.00
20091;DHT22;10205;49.678;6.560;2022-11-15T04:52:54;14.40;75.10
20091;DHT22;10205;49.678;6.560;2022-11-15T04:55:23;14.40;75.10
20091;DHT22;10205;49.678;6.560;2022-11-15T04:57:58;14.40;75.10
20091;DHT22;10205;49.678;6.560;2022-11-15T05:00:26;14.30;75.00
20091;DHT22;10205;49.678;6.560;2022-11-15T05:02:55;14.40;75.10
20091;DHT22;10205;49.678;6.560;2022-11-15T05:05:40;14.40;75.00
20091;DHT22;10205;49.678;6.560;2022-11-15T05:08:07;14.30;75.00
20091;DHT22;10205;49.678;6.560;2022-11-15T05:10:36;14.30;75.80
20091;DHT22;10205;49.678;6.560;2022-11-15T05:13:04;14.40;75.20
20091;DHT22;10205;49.678;6.560;2022-11-15T05:15:32;14.30;75.20
20091;DHT22;10205;49.678;6.560;2022-11-15T05:18:02;14.30;75.30
20091;DHT22;10205;49.678;6.560;2022-11-15T05:20:29;14.30;75.30
20091;DHT22;10205;49.678;6.560;2022-11-15T05:22:56;14.30;75.40
20091;DHT22;10205;49.678;6.560;2022-11-15T05:25:24;14.30;75.20
20091;DHT22;10205;49.678;6.560;2022-11-15T05:27:53;14.30;76.00
20091;DHT22;10205;49.678;6.560;2022-11-15T05:30:21;14.30;75.20
20091;DHT22;10205;49.678;6.560;2022-11-15T05:32:48;14.30;75.20
20091;DHT22;10205;49.678;6.560;2022-11-15T05:35:21;14.30;75.20
20091;DHT22;10205;49.678;6.560;2022-11-15T05:38:01;14.30;75.10
20091;DHT22;10205;49.678;6.560;2022-11-15T05:40:29;14.30;75.10
20091;DHT22;10205;49.678;6.560;2022-11-15T05:43:00;14.30;74.90
20091;DHT22;10205;49.678;6.560;2022-11-15T05:45:29;14.30;74.80
20091;DHT22;10205;49.678;6.560;2022-11-15T05:47:58;14.30;74.80
20091;DHT22;10205;49.678;6.560;2022-11-15T05:50:28;14.20;74.80
20091;DHT22;10205;49.678;6.560;2022-11-15T05:52:55;14.20;75.00
20091;DHT22;10205;49.678;6.560;2022-11-15T05:55:24;14.20;75.10
20091;DHT22;10205;49.678;6.560;2022-11-15T05:57:51;14.20;75.00
20091;DHT22;10205;49.678;6.560;2022-11-15T06:00:21;14.20;75.00
20091;DHT22;10205;49.678;6.560;2022-11-15T06:02:48;14.20;75.10
20091;DHT22;10205;49.678;6.560;2022-11-15T06:05:15;14.20;75.00
20091;DHT22;10205;49.678;6.560;2022-11-15T06:07:43;14.20;74.80
20091;DHT22;10205;49.678;6.560;2022-11-15T06:10:11;14.20;74.60
20091;DHT22;10205;49.678;6.560;2022-11-15T06:12:39;14.20;74.70
20091;DHT22;10205;49.678;6.560;2022-11-15T06:15:07;14.20;74.50
20091;DHT22;10205;49.678;6.560;2022-11-15T06:17:36;14.20;74.60
20091;DHT22;10205;49.678;6.560;2022-11-15T06:20:04;14.20;74.40
20091;DHT22;10205;49.678;6.560;2022-11-15T06:22:32;14.20;74.30
20091;DHT22;10205;49.678;6.560;2022-11-15T06:24:59;14.20;74.30
20091;DHT22;10205;49.678;6.560;2022-11-15T06:27:28;14.20;74.20
20091;DHT22;10205;49.678;6.560;2022-11-15T06:29:56;14.20;75.00
20091;DHT22;10205;49.678;6.560;2022-11-15T06:32:23;14.20;75.00
20091;DHT22;10205;49.678;6.560;2022-11-15T06:34:55;14.20;74.20
20091;DHT22;10205;49.678;6.560;2022-11-15T06:37:22;14.10;74.00
20091;DHT22;10205;49.678;6.560;2022-11-15T06:39:50;14.10;74.00
20091;DHT22;10205;49.678;6.560;2022-11-15T06:42:17;14.10;73.90
20091;DHT22;10205;49.678;6.560;2022-11-15T06:44:44;14.10;73.80
20091;DHT22;10205;49.678;6.560;2022-11-15T06:47:11;14.10;73.80
20091;DHT22;10205;49.678;6.560;2022-11-15T06:49:38;14.10;73.80
20091;DHT22;10205;49.678;6.560;2022-11-15T06:52:07;14.10;73.80
20091;DHT22;10205;49.678;6.560;2022-11-15T06:54:35;14.10;73.80
20091;DHT22;10205;49.678;6.560;2022-11-15T06:57:04;14.10;73.90
20091;DHT22;10205;49.678;6.560;2022-11-15T06:59:34;14.00;73.70
20091;DHT22;10205;49.678;6.560;2022-11-15T07:02:02;14.00;73.80
20091;DHT22;10205;49.678;6.560;2022-11-15T07:04:30;14.10;73.80
20091;DHT22;10205;49.678;6.560;2022-11-15T07:06:57;14.00;73.70
20091;DHT22;10205;49.678;6.560;2022-11-15T07:09:25;14.00;73.70
20091;DHT22;10205;49.678;6.560;2022-11-15T07:11:53;14.00;73.70
20091;DHT22;10205;49.678;6.560;2022-11-15T07:14:20;14.00;73.70
20091;DHT22;10205;49.678;6.560;2022-11-15T07:16:47;14.00;74.50
20091;DHT22;10205;49.678;6.560;2022-11-15T07:19:15;14.00;73.70
20091;DHT22;10205;49.678;6.560;2022-11-15T07:21:42;14.00;73.70
20091;DHT22;10205;49.678;6.560;2022-11-15T07:24:09;14.00;73.70
20091;DHT22;10205;49.678;6.560;2022-11-15T07:26:38;13.90;73.60
20091;DHT22;10205;49.678;6.560;2022-11-15T07:29:05;13.90;73.70
20091;DHT22;10205;49.678;6.560;2022-11-15T07:31:32;13.90;73.70
20091;DHT22;10205;49.678;6.560;2022-11-15T07:34:00;13.90;73.70
20091;DHT22;10205;49.678;6.560;2022-11-15T07:36:28;13.90;73.80
20091;DHT22;10205;49.678;6.560;2022-11-15T07:38:55;13.90;73.80
20091;DHT22;10205;49.678;6.560;2022-11-15T07:41:22;13.80;73.70
20091;DHT22;10205;49.678;6.560;2022-11-15T07:43:52;13.90;73.80
20091;DHT22;10205;49.678;6.560;2022-11-15T07:46:19;13.80;73.80
20091;DHT22;10205;49.678;6.560;2022-11-15T07:48:46;13.80;73.80
20091;DHT22;10205;49.678;6.560;2022-11-15T07:51:14;13.80;73.90
20091;DHT22;10205;49.678;6.560;2022-11-15T07:53:44;13.80;74.00
20091;DHT22;10205;49.678;6.560;2022-11-15T07:56:12;13.80;74.20
20091;DHT22;10205;49.678;6.560;2022-11-15T07:58:45;13.80;74.20
20091;DHT22;10205;49.678;6.560;2022-11-15T08:01:15;13.80;74.20
20091;DHT22;10205;49.678;6.560;2022-11-15T08:03:42;13.70;74.20
20091;DHT22;10205;49.678;6.560;2022-11-15T08:06:09;13.70;74.20
20091;DHT22;10205;49.678;6.560;2022-11-15T08:08:36;13.70;74.40
20091;DHT22;10205;49.678;6.560;2022-11-15T08:11:04;13.70;74.40
20091;DHT22;10205;49.678;6.560;2022-11-15T08:13:31;13.70;74.50
20091;DHT22;10205;49.678;6.560;2022-11-15T08:15:59;13.70;74.60
20091;DHT22;10205;49.678;6.560;2022-11-15T08:18:31;13.70;74.50
20091;DHT22;10205;49.678;6.560;2022-11-15T08:20:59;13.70;74.60
20091;DHT22;10205;49.678;6.560;2022-11-15T08:23:27;13.70;74.60
20091;DHT22;10205;49.678;6.560;2022-11-15T08:25:59;13.70;74.60
20091;DHT22;10205;49.678;6.560;2022-11-15T08:28:28;13.80;74.60
20091;DHT22;10205;49.678;6.560;2022-11-15T08:30:56;13.80;74.50
20091;DHT22;10205;49.678;6.560;2022-11-15T08:33:23;13.80;75.40
20091;DHT22;10205;49.678;6.560;2022-11-15T08:35:52;13.70;74.70
20091;DHT22;10205;49.678;6.560;2022-11-15T08:38:22;13.80;74.80
20091;DHT22;10205;49.678;6.560;2022-11-15T08:40:51;13.80;75.00
20091;DHT22;10205;49.678;6.560;2022-11-15T08:43:25;13.80;75.30
20091;DHT22;10205;49.678;6.560;2022-11-15T08:45:55;13.80;75.30
20091;DHT22;10205;49.678;6.560;2022-11-15T08:48:23;13.80;75.50
20091;DHT22;10205;49.678;6.560;2022-11-15T08:50:54;13.80;75.40
20091;DHT22;10205;49.678;6.560;2022-11-15T08:53:22;13.90;75.70
20091;DHT22;10205;49.678;6.560;2022-11-15T08:55:50;13.90;75.80
20091;DHT22;10205;49.678;6.560;2022-11-15T08:58:17;13.90;75.60
20091;DHT22;10205;49.678;6.560;2022-11-15T09:00:44;13.90;75.50
20091;DHT22;10205;49.678;6.560;2022-11-15T09:03:12;13.90;75.50
20091;DHT22;10205;49.678;6.560;2022-11-15T09:05:40;13.90;75.60
20091;DHT22;10205;49.678;6.560;2022-11-15T09:08:09;13.90;75.50
20091;DHT22;10205;49.678;6.560;2022-11-15T09:10:38;14.00;75.40
20091;DHT22;10205;49.678;6.560;2022-11-15T09:13:06;14.00;75.50
20091;DHT22;10205;49.678;6.560;2022-11-15T09:15:34;14.00;75.50
20091;DHT22;10205;49.678;6.560;2022-11-15T09:18:01;14.00;76.30
20091;DHT22;10205;49.678;6.560;2022-11-15T09:20:29;14.00;75.60
20091;DHT22;10205;49.678;6.560;2022-11-15T09:22:59;14.10;75.60
20091;DHT22;10205;49.678;6.560;2022-11-15T09:25:31;14.10;75.60
20091;DHT22;10205;49.678;6.560;2022-11-15T09:27:59;14.10;75.50
20091;DHT22;10205;49.678;6.560;2022-11-15T09:30:26;14.10;76.00
20091;DHT22;10205;49.678;6.560;2022-11-15T09:32:53;14.20;76.10
20091;DHT22;10205;49.678;6.560;2022-11-15T09:35:21;14.20;76.00
20091;DHT22;10205;49.678;6.560;2022-11-15T09:37:48;14.20;75.60
20091;DHT22;10205;49.678;6.560;2022-11-15T09:40:16;14.30;75.60
20091;DHT22;10205;49.678;6.560;2022-11-15T09:43:05;14.30;75.60
20091;DHT22;10205;49.678;6.560;2022-11-15T09:46:02;14.30;75.60
20091;DHT22;10205;49.678;6.560;2022-11-15T09:48:48;14.40;76.50
20091;DHT22;10205;49.678;6.560;2022-11-15T09:51:24;14.40;76.10
20091;DHT22;10205;49.678;6.560;2022-11-15T09:54:02;14.40;75.70
20091;DHT22;10205;49.678;6.560;2022-11-15T09:56:41;14.50;76.10
20091;DHT22;10205;49.678;6.560;2022-11-15T09:59:27;14.50;75.80
20091;DHT22;10205;49.678;6.560;2022-11-15T10:02:20;14.50;75.80
20091;DHT22;10205;49.678;6.560;2022-11-15T10:05:00;14.60;75.40
20091;DHT22;10205;49.678;6.560;2022-11-15T10:07:36;14.70;75.40
20091;DHT22;10205;49.678;6.560;2022-11-15T10:10:14;14.70;75.30
20091;DHT22;10205;49.678;6.560;2022-11-15T10:12:51;14.70;75.00
20091;DHT22;10205;49.678;6.560;2022-11-15T10:15:21;14.70;75.00
20091;DHT22;10205;49.678;6.560;2022-11-15T10:18:07;14.80;74.90
20091;DHT22;10205;49.678;6.560;2022-11-15T10:20:47;14.80;74.80
20091;DHT22;10205;49.678;6.560;2022-11-15T10:23:19;14.80;75.00
20091;DHT22;10205;49.678;6.560;2022-11-15T10:25:51;14.90;74.90
20091;DHT22;10205;49.678;6.560;2022-11-15T10:28:22;14.90;74.90
20091;DHT22;10205;49.678;6.560;2022-11-15T10:30:56;14.90;74.80
20091;DHT22;10205;49.678;6.560;2022-11-15T10:33:29;15.00;75.10
20091;DHT22;10205;49.678;6.560;2022-11-15T10:36:21;15.00;75.20
20091;DHT22;10205;49.678;6.560;2022-11-15T10:38:56;15.00;75.00
20091;DHT22;10205;49.678;6.560;2022-11-15T10:41:37;15.10;75.00
20091;DHT22;10205;49.678;6.560;2022-11-15T10:44:24;15.10;74.80
20091;DHT22;10205;49.678;6.560;2022-11-15T10:47:23;15.20;75.10
20091;DHT22;10205;49.678;6.560;2022-11-15T10:50:00;15.30;74.40
20091;DHT22;10205;49.678;6.560;2022-11-15T10:52:31;15.30;74.30
20091;DHT22;10205;49.678;6.560;2022-11-15T10:55:05;15.40;74.20
20091;DHT22;10205;49.678;6.560;2022-11-15T10:57:51;15.40;75.00
20091;DHT22;10205;49.678;6.560;2022-11-15T11:00:34;15.50;74.20
20091;DHT22;10205;49.678;6.560;2022-11-15T11:03:24;15.50;74.10
20091;DHT22;10205;49.678;6.560;2022-11-15T11:06:05;15.50;73.70
20091;DHT22;10205;49.678;6.560;2022-11-15T11:08:35;15.60;73.70
20091;DHT22;10205;49.678;6.560;2022-11-15T11:11:03;15.60;73.80
20091;DHT22;10205;49.678;6.560;2022-11-15T11:13:34;15.70;74.00
20091;DHT22;10205;49.678;6.560;2022-11-15T11:16:16;15.70;73.70
20091;DHT22;10205;49.678;6.560;2022-11-15T11:18:57;15.80;73.50
20091;DHT22;10205;49.678;6.560;2022-11-15T11:21:41;15.90;73.40
20091;DHT22;10205;49.678;6.560;2022-11-15T11:24:22;15.90;73.30
20091;DHT22;10205;49.678;6.560;2022-11-15T11:27:04;16.00;73.10
20091;DHT22;10205;49.678;6.560;2022-11-15T11:29:49;16.00;72.60
20091;DHT22;10205;49.678;6.560;2022-11-15T11:32:34;16.10;73.40
20091;DHT22;10205;49.678;6.560;2022-11-15T11:35:29;16.10;72.10
20091;DHT22;10205;49.678;6.560;2022-11-15T11:38:15;16.20;71.70
20091;DHT22;10205;49.678;6.560;2022-11-15T11:41:00;16.20;71.40
20091;DHT22;10205;49.678;6.560;2022-11-15T11:43:40;16.30;71.30
20091;DHT22;10205;49.678;6.560;2022-11-15T11:46:27;16.30;71.30
20091;DHT22;10205;49.678;6.560;2022-11-15T11:49:09;16.30;71.20
20091;DHT22;10205;49.678;6.560;2022-11-15T11:51:43;16.30;71.40
20091;DHT22;10205;49.678;6.560;2022-11-15T11:54:22;16.40;71.40
20091;DHT22;10205;49.678;6.560;2022-11-15T11:56:54;16.40;71.30
20091;DHT22;10205;49.678;6.560;2022-11-15T11:59:31;16.40;71.30
20091;DHT22;10205;49.678;6.560;2022-11-15T12:02:14;16.40;70.80
20091;DHT22;10205;49.678;6.560;2022-11-15T12:04:48;16.40;70.70
20091;DHT22;10205;49.678;6.560;2022-11-15T12:07:24;16.50;70.90
20091;DHT22;10205;49.678;6.560;2022-11-15T12:09:59;16.50;71.60
20091;DHT22;10205;49.678;6.560;2022-11-15T12:12:36;16.50;70.70
20091;DHT22;10205;49.678;6.560;2022-11-15T12:15:14;16.60;70.80
20091;DHT22;10205;49.678;6.560;2022-11-15T12:17:46;16.60;71.60
20091;DHT22;10205;49.678;6.560;2022-11-15T12:20:17;16.60;70.90
20091;DHT22;10205;49.678;6.560;2022-11-15T12:22:54;16.60;71.50
20091;DHT22;10205;49.678;6.560;2022-11-15T12:25:29;16.60;70.60
20091;DHT22;10205;49.678;6.560;2022-11-15T12:28:08;16.60;70.40
20091;DHT22;10205;49.678;6.560;2022-11-15T12:30:45;16.70;70.80
20091;DHT22;10205;49.678;6.560;2022-11-15T12:33:31;16.70;71.00
20091;DHT22;10205;49.678;6.560;2022-11-15T12:36:03;16.70;70.50
20091;DHT22;10205;49.678;6.560;2022-11-15T12:38:54;16.70;70.70
20091;DHT22;10205;49.678;6.560;2022-11-15T12:41:25;16.80;70.70
20091;DHT22;10205;49.678;6.560;2022-11-15T12:43:54;16.80;70.90
20091;DHT22;10205;49.678;6.560;2022-11-15T12:47:00;16.90;70.30
20091;DHT22;10205;49.678;6.560;2022-11-15T12:49:51;16.90;70.10
20091;DHT22;10205;49.678;6.560;2022-11-15T12:52:19;16.90;70.30
20091;DHT22;10205;49.678;6.560;2022-11-15T12:54:57;16.90;70.50
20091;DHT22;10205;49.678;6.560;2022-11-15T12:57:33;16.90;70.20
20091;DHT22;10205;49.678;6.560;2022-11-15T13:03:26;17.00;69.70
20091;DHT22;10205;49.678;6.560;2022-11-15T13:06:01;17.00;70.50
20091;DHT22;10205;49.678;6.560;2022-11-15T13:08:45;17.00;69.70
20091;DHT22;10205;49.678;6.560;2022-11-15T13:14:48;17.00;69.40
20091;DHT22;10205;49.678;6.560;2022-11-15T13:17:35;17.10;69.30
20091;DHT22;10205;49.678;6.560;2022-11-15T13:20:18;17.10;69.20
20091;DHT22;10205;49.678;6.560;2022-11-15T13:22:50;17.10;69.20
20091;DHT22;10205;49.678;6.560;2022-11-15T13:25:33;17.10;69.70
20091;DHT22;10205;49.678;6.560;2022-11-15T13:28:22;17.10;69.50
20091;DHT22;10205;49.678;6.560;2022-11-15T13:30:56;17.20;69.40
20091;DHT22;10205;49.678;6.560;2022-11-15T13:33:31;17.20;69.80
20091;DHT22;10205;49.678;6.560;2022-11-15T13:36:03;17.20;69.80
20091;DHT22;10205;49.678;6.560;2022-11-15T13:38:34;17.20;69.60
20091;DHT22;10205;49.678;6.560;2022-11-15T13:41:16;17.30;69.40
20091;DHT22;10205;49.678;6.560;2022-11-15T13:43:47;17.30;69.20
20091;DHT22;10205;49.678;6.560;2022-11-15T13:46:19;17.30;69.40
20091;DHT22;10205;49.678;6.560;2022-11-15T13:48:55;17.30;69.10
20091;DHT22;10205;49.678;6.560;2022-11-15T13:51:29;17.30;68.80
20091;DHT22;10205;49.678;6.560;2022-11-15T13:54:09;17.30;69.00
20091;DHT22;10205;49.678;6.560;2022-11-15T13:56:45;17.30;68.70
20091;DHT22;10205;49.678;6.560;2022-11-15T13:59:24;17.40;68.90
20091;DHT22;10205;49.678;6.560;2022-11-15T14:01:53;17.40;68.60
20091;DHT22;10205;49.678;6.560;2022-11-15T14:04:23;17.40;68.70
20091;DHT22;10205;49.678;6.560;2022-11-15T14:06:57;17.40;68.70
20091;DHT22;10205;49.678;6.560;2022-11-15T14:09:35;17.40;68.80
20091;DHT22;10205;49.678;6.560;2022-11-15T14:12:30;17.40;68.20
20091;DHT22;10205;49.678;6.560;2022-11-15T14:15:18;17.40;68.50
20091;DHT22;10205;49.678;6.560;2022-11-15T14:17:51;17.50;68.00
20091;DHT22;10205;49.678;6.560;2022-11-15T14:20:30;17.40;68.20
20091;DHT22;10205;49.678;6.560;2022-11-15T14:23:00;17.40;67.50
20091;DHT22;10205;49.678;6.560;2022-11-15T14:25:29;17.40;68.20
20091;DHT22;10205;49.678;6.560;2022-11-15T14:28:15;17.40;67.60
20091;DHT22;10205;49.678;6.560;2022-11-15T14:30:59;17.40;67.20
20091;DHT22;10205;49.678;6.560;2022-11-15T14:33:34;17.40;67.80
20091;DHT22;10205;49.678;6.560;2022-11-15T14:36:04;17.40;68.20
20091;DHT22;10205;49.678;6.560;2022-11-15T14:38:33;17.40;67.70
20091;DHT22;10205;49.678;6.560;2022-11-15T14:41:01;17.40;67.60
20091;DHT22;10205;49.678;6.560;2022-11-15T14:43:28;17.40;67.80
20091;DHT22;10205;49.678;6.560;2022-11-15T14:45:57;17.40;67.70
20091;DHT22;10205;49.678;6.560;2022-11-15T14:48:24;17.40;67.50
20091;DHT22;10205;49.678;6.560;2022-11-15T14:50:52;17.40;67.80
20091;DHT22;10205;49.678;6.560;2022-11-15T14:53:19;17.40;68.00
20091;DHT22;10205;49.678;6.560;2022-11-15T14:55:47;17.50;67.80
20091;DHT22;10205;49.678;6.560;2022-11-15T14:58:15;17.40;67.90
20091;DHT22;10205;49.678;6.560;2022-11-15T15:00:42;17.40;67.60
20091;DHT22;10205;49.678;6.560;2022-11-15T15:03:11;17.50;67.20
20091;DHT22;10205;49.678;6.560;2022-11-15T15:05:40;17.50;68.00
20091;DHT22;10205;49.678;6.560;2022-11-15T15:08:09;17.50;67.40
20091;DHT22;10205;49.678;6.560;2022-11-15T15:10:39;17.50;67.30
20091;DHT22;10205;49.678;6.560;2022-11-15T15:13:15;17.50;67.40
20091;DHT22;10205;49.678;6.560;2022-11-15T15:15:43;17.50;67.10
20091;DHT22;10205;49.678;6.560;2022-11-15T15:18:12;17.50;66.90
20091;DHT22;10205;49.678;6.560;2022-11-15T15:20:42;17.50;66.90
20091;DHT22;10205;49.678;6.560;2022-11-15T15:23:15;17.50;67.00
20091;DHT22;10205;49.678;6.560;2022-11-15T15:25:43;17.40;66.90
20091;DHT22;10205;49.678;6.560;2022-11-15T15:28:11;17.40;67.10
20091;DHT22;10205;49.678;6.560;2022-11-15T15:30:39;17.40;67.00
20091;DHT22;10205;49.678;6.560;2022-11-15T15:33:07;17.40;68.10
20091;DHT22;10205;49.678;6.560;2022-11-15T15:35:36;17.50;67.10
20091;DHT22;10205;49.678;6.560;2022-11-15T15:38:04;17.40;66.90
20091;DHT22;10205;49.678;6.560;2022-11-15T15:40:32;17.40;67.00
20091;DHT22;10205;49.678;6.560;2022-11-15T15:43:00;17.40;67.00
20091;DHT22;10205;49.678;6.560;2022-11-15T15:45:27;17.40;67.40
20091;DHT22;10205;49.678;6.560;2022-11-15T15:47:55;17.40;67.40
20091;DHT22;10205;49.678;6.560;2022-11-15T15:50:24;17.40;67.60
20091;DHT22;10205;49.678;6.560;2022-11-15T15:52:57;17.40;67.30
20091;DHT22;10205;49.678;6.560;2022-11-15T15:55:27;17.40;67.30
20091;DHT22;10205;49.678;6.560;2022-11-15T15:57:54;17.40;67.50
20091;DHT22;10205;49.678;6.560;2022-11-15T16:00:23;17.50;67.60
20091;DHT22;10205;49.678;6.560;2022-11-15T16:02:53;17.40;67.50
20091;DHT22;10205;49.678;6.560;2022-11-15T16:05:20;17.40;67.50
20091;DHT22;10205;49.678;6.560;2022-11-15T16:07:51;17.40;67.70
20091;DHT22;10205;49.678;6.560;2022-11-15T16:10:23;17.40;67.60
20091;DHT22;10205;49.678;6.560;2022-11-15T16:12:52;17.40;67.80
20091;DHT22;10205;49.678;6.560;2022-11-15T16:15:22;17.40;67.60
20091;DHT22;10205;49.678;6.560;2022-11-15T16:17:52;17.40;68.00